sensor_id;sensor_type;location;lat;lon;timestamp;pressure;altitude;pressure_sealevel;temperature;humidity
5550;BME280;2798;42.716;23.256;2023-09-18T00:02:04;95201.13;;;22.76;68.31
5550;BME280;2798;42.716;23.256;2023-09-18T00:04:29;95202.94;;;22.76;68.62
5550;BME280;2798;42.716;23.256;2023-09-18T00:06:55;95194.78;;;22.70;68.25
5550;BME280;2798;42.716;23.256;2023-09-18T00:09:20;95191.69;;;22.67;68.86
5550;BME280;2798;42.716;23.256;2023-09-18T00:11:45;95191.41;;;22.62;68.83
5550;BME280;2798;42.716;23.256;2023-09-18T00:14:10;95190.75;;;22.59;68.62
5550;BME280;2798;42.716;23.256;2023-09-18T00:16:36;95194.53;;;22.57;68.69
5550;BME280;2798;42.716;23.256;2023-09-18T00:19:01;95190.59;;;22.53;68.73
5550;BME280;2798;42.716;23.256;2023-09-18T00:21:27;95193.53;;;22.58;67.91
5550;BME280;2798;42.716;23.256;2023-09-18T00:23:55;95195.56;;;22.47;68.61
5550;BME280;2798;42.716;23.256;2023-09-18T00:26:21;95192.09;;;22.55;67.92
5550;BME280;2798;42.716;23.256;2023-09-18T00:28:47;95194.84;;;22.54;67.91
5550;BME280;2798;42.716;23.256;2023-09-18T00:31:12;95191.97;;;22.48;68.22
5550;BME280;2798;42.716;23.256;2023-09-18T00:33:37;95193.75;;;22.48;68.07
5550;BME280;2798;42.716;23.256;2023-09-18T00:36:03;95196.06;;;22.43;68.34
5550;BME280;2798;42.716;23.256;2023-09-18T00:38:28;95197.06;;;22.42;67.93
5550;BME280;2798;42.716;23.256;2023-09-18T00:40:54;95196.59;;;22.38;68.60
5550;BME280;2798;42.716;23.256;2023-09-18T00:43:19;95196.78;;;22.37;68.78
5550;BME280;2798;42.716;23.256;2023-09-18T00:45:46;95199.22;;;22.38;67.88
5550;BME280;2798;42.716;23.256;2023-09-18T00:48:12;95197.94;;;22.34;68.13
5550;BME280;2798;42.716;23.256;2023-09-18T00:50:39;95169.72;;;22.13;68.32
5550;BME280;2798;42.716;23.256;2023-09-18T00:53:05;95204.34;;;22.31;68.36
5550;BME280;2798;42.716;23.256;2023-09-18T00:55:32;95204.50;;;22.30;68.07
5550;BME280;2798;42.716;23.256;2023-09-18T00:57:57;95204.69;;;22.28;68.25
5550;BME280;2798;42.716;23.256;2023-09-18T01:00:23;95200.31;;;22.20;69.00
5550;BME280;2798;42.716;23.256;2023-09-18T01:02:48;95218.84;;;22.19;68.77
5550;BME280;2798;42.716;23.256;2023-09-18T01:05:14;95208.97;;;22.29;68.39
5550;BME280;2798;42.716;23.256;2023-09-18T01:07:41;95227.47;;;22.28;68.34
5550;BME280;2798;42.716;23.256;2023-09-18T01:10:07;95214.72;;;22.25;68.04
5550;BME280;2798;42.716;23.256;2023-09-18T01:12:36;95222.75;;;22.23;68.35
5550;BME280;2798;42.716;23.256;2023-09-18T01:15:10;95214.59;;;22.18;68.49
5550;BME280;2798;42.716;23.256;2023-09-18T01:17:37;95211.31;;;22.16;68.93
5550;BME280;2798;42.716;23.256;2023-09-18T01:20:05;95209.34;;;22.18;68.46
5550;BME280;2798;42.716;23.256;2023-09-18T01:22:31;95215.22;;;22.20;68.51
5550;BME280;2798;42.716;23.256;2023-09-18T01:24:57;95210.38;;;22.08;68.77
5550;BME280;2798;42.716;23.256;2023-09-18T01:27:22;95212.19;;;22.08;69.17
5550;BME280;2798;42.716;23.256;2023-09-18T01:29:48;95211.19;;;22.09;68.85
5550;BME280;2798;42.716;23.256;2023-09-18T01:32:14;95210.03;;;22.12;68.89
5550;BME280;2798;42.716;23.256;2023-09-18T01:34:44;95206.75;;;22.09;68.87
5550;BME280;2798;42.716;23.256;2023-09-18T01:37:11;95209.56;;;22.08;68.82
5550;BME280;2798;42.716;23.256;2023-09-18T01:39:37;95214.31;;;22.04;68.57
5550;BME280;2798;42.716;23.256;2023-09-18T01:42:04;95212.53;;;22.05;68.96
5550;BME280;2798;42.716;23.256;2023-09-18T01:44:34;95213.97;;;22.07;68.97
5550;BME280;2798;42.716;23.256;2023-09-18T01:47:03;95210.59;;;21.98;68.91
5550;BME280;2798;42.716;23.256;2023-09-18T01:49:31;95212.88;;;22.02;69.24
5550;BME280;2798;42.716;23.256;2023-09-18T01:51:56;95213.03;;;22.00;69.14
5550;BME280;2798;42.716;23.256;2023-09-18T01:54:22;95210.41;;;22.00;69.10
5550;BME280;2798;42.716;23.256;2023-09-18T01:56:48;95210.28;;;21.93;69.48
5550;BME280;2798;42.716;23.256;2023-09-18T01:59:13;95210.31;;;21.85;70.12
5550;BME280;2798;42.716;23.256;2023-09-18T02:01:38;95149.19;;;21.53;70.02
5550;BME280;2798;42.716;23.256;2023-09-18T02:04:04;95216.03;;;21.89;69.92
5550;BME280;2798;42.716;23.256;2023-09-18T02:06:29;95184.78;;;21.70;69.50
5550;BME280;2798;42.716;23.256;2023-09-18T02:08:55;95218.47;;;21.90;69.69
5550;BME280;2798;42.716;23.256;2023-09-18T02:11:20;95220.63;;;21.86;70.12
5550;BME280;2798;42.716;23.256;2023-09-18T02:13:46;95214.88;;;21.83;70.02
5550;BME280;2798;42.716;23.256;2023-09-18T02:16:11;95214.44;;;21.79;70.14
5550;BME280;2798;42.716;23.256;2023-09-18T02:18:36;95223.56;;;21.83;70.48
5550;BME280;2798;42.716;23.256;2023-09-18T02:21:01;95220.94;;;21.92;70.28
5550;BME280;2798;42.716;23.256;2023-09-18T02:23:27;95224.66;;;21.97;70.05
5550;BME280;2798;42.716;23.256;2023-09-18T02:25:55;95219.94;;;21.93;70.14
5550;BME280;2798;42.716;23.256;2023-09-18T02:28:20;95211.94;;;21.86;70.38
5550;BME280;2798;42.716;23.256;2023-09-18T02:30:46;95216.06;;;21.80;70.63
5550;BME280;2798;42.716;23.256;2023-09-18T02:33:11;95215.38;;;21.86;70.22
5550;BME280;2798;42.716;23.256;2023-09-18T02:35:36;95214.41;;;21.88;70.05
5550;BME280;2798;42.716;23.256;2023-09-18T02:38:01;95213.28;;;21.82;70.76
5550;BME280;2798;42.716;23.256;2023-09-18T02:40:27;95219.66;;;21.88;70.54
5550;BME280;2798;42.716;23.256;2023-09-18T02:42:53;95214.25;;;21.89;70.57
5550;BME280;2798;42.716;23.256;2023-09-18T02:45:18;95209.97;;;21.88;70.62
5550;BME280;2798;42.716;23.256;2023-09-18T02:47:43;95215.22;;;21.88;70.34
5550;BME280;2798;42.716;23.256;2023-09-18T02:50:09;95217.66;;;21.90;70.04
5550;BME280;2798;42.716;23.256;2023-09-18T02:52:36;95222.28;;;21.88;70.50
5550;BME280;2798;42.716;23.256;2023-09-18T02:55:01;95224.88;;;21.88;69.91
5550;BME280;2798;42.716;23.256;2023-09-18T02:57:26;95221.94;;;21.82;70.38
5550;BME280;2798;42.716;23.256;2023-09-18T02:59:51;95225.38;;;21.83;70.50
5550;BME280;2798;42.716;23.256;2023-09-18T03:02:17;95217.03;;;21.71;71.03
5550;BME280;2798;42.716;23.256;2023-09-18T03:04:42;95221.13;;;21.73;70.59
5550;BME280;2798;42.716;23.256;2023-09-18T03:07:07;95229.31;;;21.79;70.83
5550;BME280;2798;42.716;23.256;2023-09-18T03:09:32;95223.41;;;21.77;70.78
5550;BME280;2798;42.716;23.256;2023-09-18T03:11:58;95225.41;;;21.74;70.76
5550;BME280;2798;42.716;23.256;2023-09-18T03:14:23;95226.88;;;21.69;70.87
5550;BME280;2798;42.716;23.256;2023-09-18T03:16:48;95217.53;;;21.74;70.59
5550;BME280;2798;42.716;23.256;2023-09-18T03:19:13;95214.91;;;21.74;70.61
5550;BME280;2798;42.716;23.256;2023-09-18T03:21:39;95208.38;;;21.79;70.74
5550;BME280;2798;42.716;23.256;2023-09-18T03:24:04;95218.50;;;21.73;70.89
5550;BME280;2798;42.716;23.256;2023-09-18T03:26:29;95213.25;;;21.73;70.54
5550;BME280;2798;42.716;23.256;2023-09-18T03:28:55;95211.63;;;21.72;70.83
5550;BME280;2798;42.716;23.256;2023-09-18T03:31:20;95210.00;;;21.71;71.16
5550;BME280;2798;42.716;23.256;2023-09-18T03:33:45;95216.53;;;21.76;70.67
5550;BME280;2798;42.716;23.256;2023-09-18T03:36:11;95205.06;;;21.77;70.58
5550;BME280;2798;42.716;23.256;2023-09-18T03:38:37;95188.44;;;21.53;70.78
5550;BME280;2798;42.716;23.256;2023-09-18T03:41:02;95199.84;;;21.68;70.79
5550;BME280;2798;42.716;23.256;2023-09-18T03:43:27;95204.63;;;21.65;71.27
5550;BME280;2798;42.716;23.256;2023-09-18T03:45:53;95202.19;;;21.63;71.26
5550;BME280;2798;42.716;23.256;2023-09-18T03:48:18;95195.78;;;21.66;71.23
5550;BME280;2798;42.716;23.256;2023-09-18T03:50:45;95198.41;;;21.66;71.13
5550;BME280;2798;42.716;23.256;2023-09-18T03:53:12;95193.31;;;21.64;71.18
5550;BME280;2798;42.716;23.256;2023-09-18T03:55:37;95197.41;;;21.67;71.39
5550;BME280;2798;42.716;23.256;2023-09-18T03:58:04;95193.00;;;21.67;71.27
5550;BME280;2798;42.716;23.256;2023-09-18T04:00:30;95201.34;;;21.63;71.14
5550;BME280;2798;42.716;23.256;2023-09-18T04:02:55;95198.22;;;21.67;71.09
5550;BME280;2798;42.716;23.256;2023-09-18T04:05:21;95193.31;;;21.64;71.59
5550;BME280;2798;42.716;23.256;2023-09-18T04:07:46;95188.09;;;21.64;71.25
5550;BME280;2798;42.716;23.256;2023-09-18T04:10:11;95188.09;;;21.64;71.23
5550;BME280;2798;42.716;23.256;2023-09-18T04:12:43;95195.47;;;21.60;71.38
5550;BME280;2798;42.716;23.256;2023-09-18T04:15:10;95202.00;;;21.65;71.59
5550;BME280;2798;42.716;23.256;2023-09-18T04:17:37;95200.88;;;21.59;71.81
5550;BME280;2798;42.716;23.256;2023-09-18T04:20:02;95208.25;;;21.55;71.70
5550;BME280;2798;42.716;23.256;2023-09-18T04:22:29;95209.38;;;21.61;71.60
5550;BME280;2798;42.716;23.256;2023-09-18T04:24:54;95212.81;;;21.61;71.77
5550;BME280;2798;42.716;23.256;2023-09-18T04:27:20;95219.03;;;21.60;71.70
5550;BME280;2798;42.716;23.256;2023-09-18T04:29:45;95216.41;;;21.60;71.69
5550;BME280;2798;42.716;23.256;2023-09-18T04:32:10;95220.50;;;21.63;71.60
5550;BME280;2798;42.716;23.256;2023-09-18T04:34:35;95221.47;;;21.62;71.37
5550;BME280;2798;42.716;23.256;2023-09-18T04:37:01;95221.16;;;21.65;71.44
5550;BME280;2798;42.716;23.256;2023-09-18T04:39:27;95223.75;;;21.65;71.61
5550;BME280;2798;42.716;23.256;2023-09-18T04:41:54;95218.69;;;21.64;71.29
5550;BME280;2798;42.716;23.256;2023-09-18T04:44:20;95220.34;;;21.65;71.51
5550;BME280;2798;42.716;23.256;2023-09-18T04:46:45;95217.56;;;21.66;71.60
5550;BME280;2798;42.716;23.256;2023-09-18T04:49:10;95213.47;;;21.64;71.49
5550;BME280;2798;42.716;23.256;2023-09-18T04:51:36;95220.34;;;21.65;71.41
5550;BME280;2798;42.716;23.256;2023-09-18T04:54:01;95218.03;;;21.70;71.33
5550;BME280;2798;42.716;23.256;2023-09-18T04:56:27;95223.59;;;21.67;71.60
5550;BME280;2798;42.716;23.256;2023-09-18T04:58:52;95212.16;;;21.68;71.77
5550;BME280;2798;42.716;23.256;2023-09-18T05:01:17;95215.91;;;21.65;71.58
5550;BME280;2798;42.716;23.256;2023-09-18T05:03:43;95216.56;;;21.67;71.50
5550;BME280;2798;42.716;23.256;2023-09-18T05:06:09;95211.97;;;21.69;71.65
5550;BME280;2798;42.716;23.256;2023-09-18T05:08:35;95209.84;;;21.73;71.45
5550;BME280;2798;42.716;23.256;2023-09-18T05:11:00;95219.84;;;21.78;71.12
5550;BME280;2798;42.716;23.256;2023-09-18T05:13:26;95212.63;;;21.80;71.14
5550;BME280;2798;42.716;23.256;2023-09-18T05:15:52;95225.38;;;21.83;71.04
5550;BME280;2798;42.716;23.256;2023-09-18T05:18:17;95224.22;;;21.85;71.34
5550;BME280;2798;42.716;23.256;2023-09-18T05:20:43;95221.28;;;21.89;71.13
5550;BME280;2798;42.716;23.256;2023-09-18T05:23:08;95228.13;;;21.90;71.08
5550;BME280;2798;42.716;23.256;2023-09-18T05:25:34;95230.59;;;21.91;70.85
5550;BME280;2798;42.716;23.256;2023-09-18T05:28:02;95235.47;;;21.94;71.11
5550;BME280;2798;42.716;23.256;2023-09-18T05:30:31;95235.78;;;22.00;71.21
5550;BME280;2798;42.716;23.256;2023-09-18T05:32:59;95235.44;;;22.03;70.92
5550;BME280;2798;42.716;23.256;2023-09-18T05:35:33;95234.94;;;22.07;70.70
5550;BME280;2798;42.716;23.256;2023-09-18T05:37:59;95236.25;;;22.12;70.76
5550;BME280;2798;42.716;23.256;2023-09-18T05:40:25;95231.47;;;22.15;70.51
5550;BME280;2798;42.716;23.256;2023-09-18T05:42:53;95233.56;;;22.20;70.67
5550;BME280;2798;42.716;23.256;2023-09-18T05:45:18;95234.03;;;22.23;70.13
5550;BME280;2798;42.716;23.256;2023-09-18T05:47:44;95238.94;;;22.27;70.04
5550;BME280;2798;42.716;23.256;2023-09-18T05:50:09;95239.25;;;22.32;70.14
5550;BME280;2798;42.716;23.256;2023-09-18T05:52:35;95237.91;;;22.36;69.75
5550;BME280;2798;42.716;23.256;2023-09-18T05:55:03;95240.84;;;22.41;69.77
5550;BME280;2798;42.716;23.256;2023-09-18T05:57:28;95237.69;;;22.46;69.87
5550;BME280;2798;42.716;23.256;2023-09-18T05:59:54;95231.75;;;22.52;69.38
5550;BME280;2798;42.716;23.256;2023-09-18T06:02:20;95234.66;;;22.57;69.17
5550;BME280;2798;42.716;23.256;2023-09-18T06:04:46;95227.13;;;22.63;69.07
5550;BME280;2798;42.716;23.256;2023-09-18T06:07:11;95227.44;;;22.68;68.67
5550;BME280;2798;42.716;23.256;2023-09-18T06:09:38;95228.53;;;22.74;68.74
5550;BME280;2798;42.716;23.256;2023-09-18T06:12:03;95230.44;;;22.80;68.83
5550;BME280;2798;42.716;23.256;2023-09-18T06:14:30;95226.31;;;22.86;68.41
5550;BME280;2798;42.716;23.256;2023-09-18T06:16:56;95236.28;;;22.90;67.77
5550;BME280;2798;42.716;23.256;2023-09-18T06:19:22;95230.69;;;22.93;67.58
5550;BME280;2798;42.716;23.256;2023-09-18T06:21:47;95233.41;;;23.00;67.34
5550;BME280;2798;42.716;23.256;2023-09-18T06:24:12;95235.50;;;23.05;67.41
5550;BME280;2798;42.716;23.256;2023-09-18T06:26:38;95234.81;;;23.11;67.26
5550;BME280;2798;42.716;23.256;2023-09-18T06:29:04;95228.00;;;23.17;66.80
5550;BME280;2798;42.716;23.256;2023-09-18T06:31:29;95238.63;;;23.24;66.28
5550;BME280;2798;42.716;23.256;2023-09-18T06:33:56;95236.28;;;23.29;66.49
5550;BME280;2798;42.716;23.256;2023-09-18T06:36:21;95241.63;;;23.36;66.25
5550;BME280;2798;42.716;23.256;2023-09-18T06:38:46;95239.94;;;23.43;66.45
5550;BME280;2798;42.716;23.256;2023-09-18T06:41:12;95251.19;;;23.52;65.78
5550;BME280;2798;42.716;23.256;2023-09-18T06:43:37;95239.97;;;23.58;65.84
5550;BME280;2798;42.716;23.256;2023-09-18T06:46:02;95241.69;;;23.66;65.34
5550;BME280;2798;42.716;23.256;2023-09-18T06:48:27;95200.75;;;23.56;65.57
5550;BME280;2798;42.716;23.256;2023-09-18T06:50:57;95242.13;;;23.85;65.54
5550;BME280;2798;42.716;23.256;2023-09-18T06:53:22;95235.97;;;23.92;65.30
5550;BME280;2798;42.716;23.256;2023-09-18T06:55:48;95238.06;;;23.97;64.70
5550;BME280;2798;42.716;23.256;2023-09-18T06:58:13;95234.06;;;24.01;64.17
5550;BME280;2798;42.716;23.256;2023-09-18T07:00:38;95254.34;;;24.07;63.75
5550;BME280;2798;42.716;23.256;2023-09-18T07:03:04;95240.31;;;24.15;63.81
5550;BME280;2798;42.716;23.256;2023-09-18T07:05:29;95242.03;;;24.23;63.49
5550;BME280;2798;42.716;23.256;2023-09-18T07:07:54;95236.06;;;24.29;62.71
5550;BME280;2798;42.716;23.256;2023-09-18T07:10:21;95235.50;;;24.34;62.49
5550;BME280;2798;42.716;23.256;2023-09-18T07:12:46;95237.56;;;24.39;62.40
5550;BME280;2798;42.716;23.256;2023-09-18T07:15:11;95240.28;;;24.46;62.51
5550;BME280;2798;42.716;23.256;2023-09-18T07:17:36;95245.16;;;24.49;62.06
5550;BME280;2798;42.716;23.256;2023-09-18T07:20:02;95240.13;;;24.54;61.54
5550;BME280;2798;42.716;23.256;2023-09-18T07:22:38;95233.31;;;24.60;61.90
5550;BME280;2798;42.716;23.256;2023-09-18T07:25:04;95245.72;;;24.66;61.41
5550;BME280;2798;42.716;23.256;2023-09-18T07:27:29;95243.53;;;24.69;61.14
5550;BME280;2798;42.716;23.256;2023-09-18T07:29:55;95243.16;;;24.73;60.64
5550;BME280;2798;42.716;23.256;2023-09-18T07:32:20;95243.78;;;24.75;60.86
5550;BME280;2798;42.716;23.256;2023-09-18T07:34:45;95239.34;;;24.75;60.18
5550;BME280;2798;42.716;23.256;2023-09-18T07:37:12;95241.78;;;24.77;60.14
5550;BME280;2798;42.716;23.256;2023-09-18T07:39:37;95236.78;;;24.82;60.33
5550;BME280;2798;42.716;23.256;2023-09-18T07:42:04;95245.31;;;24.84;59.75
5550;BME280;2798;42.716;23.256;2023-09-18T07:44:30;95248.34;;;24.88;59.75
5550;BME280;2798;42.716;23.256;2023-09-18T07:46:55;95243.56;;;24.91;59.37
5550;BME280;2798;42.716;23.256;2023-09-18T07:49:20;95238.75;;;24.95;59.22
5550;BME280;2798;42.716;23.256;2023-09-18T07:51:46;95243.63;;;24.98;58.61
5550;BME280;2798;42.716;23.256;2023-09-18T07:54:13;95198.25;;;24.74;58.83
5550;BME280;2798;42.716;23.256;2023-09-18T07:56:39;95241.44;;;25.02;58.46
5550;BME280;2798;42.716;23.256;2023-09-18T07:59:04;95235.78;;;25.05;58.26
5550;BME280;2798;42.716;23.256;2023-09-18T08:01:30;95238.22;;;25.06;58.04
5550;BME280;2798;42.716;23.256;2023-09-18T08:03:56;95238.84;;;25.09;58.13
5550;BME280;2798;42.716;23.256;2023-09-18T08:06:24;95241.47;;;25.09;57.81
5550;BME280;2798;42.716;23.256;2023-09-18T08:08:51;95236.00;;;25.10;57.71
5550;BME280;2798;42.716;23.256;2023-09-18T08:11:16;95234.84;;;25.13;57.76
5550;BME280;2798;42.716;23.256;2023-09-18T08:13:42;95237.28;;;25.14;57.46
5550;BME280;2798;42.716;23.256;2023-09-18T08:16:07;95235.47;;;25.15;57.85
5550;BME280;2798;42.716;23.256;2023-09-18T08:18:33;95233.44;;;25.17;57.35
5550;BME280;2798;42.716;23.256;2023-09-18T08:20:59;95233.25;;;25.18;57.77
5550;BME280;2798;42.716;23.256;2023-09-18T08:23:25;95229.44;;;25.21;57.54
5550;BME280;2798;42.716;23.256;2023-09-18T08:25:50;95211.78;;;25.22;57.63
5550;BME280;2798;42.716;23.256;2023-09-18T08:28:20;95215.06;;;25.24;57.38
5550;BME280;2798;42.716;23.256;2023-09-18T08:30:46;95224.56;;;25.25;57.00
5550;BME280;2798;42.716;23.256;2023-09-18T08:33:15;95213.84;;;25.26;56.72
5550;BME280;2798;42.716;23.256;2023-09-18T08:35:40;95213.66;;;25.28;57.09
5550;BME280;2798;42.716;23.256;2023-09-18T08:38:05;95210.66;;;25.31;57.21
5550;BME280;2798;42.716;23.256;2023-09-18T08:40:31;95212.28;;;25.32;56.74
5550;BME280;2798;42.716;23.256;2023-09-18T08:42:56;95199.75;;;25.34;56.96
5550;BME280;2798;42.716;23.256;2023-09-18T08:45:37;95205.41;;;25.38;56.45
5550;BME280;2798;42.716;23.256;2023-09-18T08:48:03;95200.59;;;25.41;56.34
5550;BME280;2798;42.716;23.256;2023-09-18T08:50:29;95195.94;;;25.43;56.22
5550;BME280;2798;42.716;23.256;2023-09-18T08:52:55;95203.47;;;25.47;56.13
5550;BME280;2798;42.716;23.256;2023-09-18T08:55:20;95199.81;;;25.48;56.08
5550;BME280;2798;42.716;23.256;2023-09-18T08:57:46;95194.97;;;25.51;56.10
5550;BME280;2798;42.716;23.256;2023-09-18T09:00:11;95200.69;;;25.55;55.67
5550;BME280;2798;42.716;23.256;2023-09-18T09:02:41;95194.38;;;25.56;55.86
5550;BME280;2798;42.716;23.256;2023-09-18T09:05:06;95196.44;;;25.61;55.68
5550;BME280;2798;42.716;23.256;2023-09-18T09:07:32;95197.09;;;25.63;55.36
5550;BME280;2798;42.716;23.256;2023-09-18T09:09:57;95195.88;;;25.65;55.39
5550;BME280;2798;42.716;23.256;2023-09-18T09:15:07;95190.66;;;25.72;55.24
5550;BME280;2798;42.716;23.256;2023-09-18T09:17:32;95189.44;;;25.75;54.87
5550;BME280;2798;42.716;23.256;2023-09-18T09:20:07;95115.66;;;25.39;54.75
5550;BME280;2798;42.716;23.256;2023-09-18T09:22:33;95181.38;;;25.83;54.48
5550;BME280;2798;42.716;23.256;2023-09-18T09:24:59;95180.97;;;25.86;54.22
5550;BME280;2798;42.716;23.256;2023-09-18T09:27:24;95190.13;;;25.90;53.94
5550;BME280;2798;42.716;23.256;2023-09-18T09:29:59;95179.38;;;25.92;53.87
5550;BME280;2798;42.716;23.256;2023-09-18T09:32:24;95182.41;;;25.96;53.57
5550;BME280;2798;42.716;23.256;2023-09-18T09:34:56;95184.66;;;25.99;53.46
5550;BME280;2798;42.716;23.256;2023-09-18T09:37:29;95161.50;;;25.80;53.20
5550;BME280;2798;42.716;23.256;2023-09-18T09:39:55;95183.28;;;26.03;52.79
5550;BME280;2798;42.716;23.256;2023-09-18T09:42:21;95172.97;;;26.08;52.81
5550;BME280;2798;42.716;23.256;2023-09-18T09:45:00;95173.34;;;26.12;52.71
5550;BME280;2798;42.716;23.256;2023-09-18T09:47:25;95170.31;;;26.15;52.34
5550;BME280;2798;42.716;23.256;2023-09-18T09:49:50;95164.47;;;26.20;52.26
5550;BME280;2798;42.716;23.256;2023-09-18T09:52:19;95158.78;;;26.23;51.96
5550;BME280;2798;42.716;23.256;2023-09-18T09:54:46;95159.38;;;26.25;51.86
5550;BME280;2798;42.716;23.256;2023-09-18T09:57:12;95164.25;;;26.28;51.53
5550;BME280;2798;42.716;23.256;2023-09-18T09:59:37;95157.63;;;26.32;51.59
5550;BME280;2798;42.716;23.256;2023-09-18T10:02:02;95165.75;;;26.37;51.19
5550;BME280;2798;42.716;23.256;2023-09-18T10:04:28;95161.91;;;26.40;51.05
5550;BME280;2798;42.716;23.256;2023-09-18T10:07:03;95149.91;;;26.44;50.98
5550;BME280;2798;42.716;23.256;2023-09-18T10:09:30;95154.78;;;26.47;50.41
5550;BME280;2798;42.716;23.256;2023-09-18T10:11:58;95151.75;;;26.50;50.14
5550;BME280;2798;42.716;23.256;2023-09-18T10:14:31;95146.69;;;26.56;50.13
5550;BME280;2798;42.716;23.256;2023-09-18T10:16:59;95148.13;;;26.58;50.20
5550;BME280;2798;42.716;23.256;2023-09-18T10:24:32;95137.75;;;26.70;49.88
5550;BME280;2798;42.716;23.256;2023-09-18T10:27:00;95129.44;;;26.73;49.56
5550;BME280;2798;42.716;23.256;2023-09-18T10:29:28;95132.28;;;26.78;49.52
5550;BME280;2798;42.716;23.256;2023-09-18T10:31:55;95123.75;;;26.83;49.04
5550;BME280;2798;42.716;23.256;2023-09-18T10:34:20;95118.88;;;26.87;48.98
5550;BME280;2798;42.716;23.256;2023-09-18T10:36:46;95114.59;;;26.93;48.80
5550;BME280;2798;42.716;23.256;2023-09-18T10:39:12;95113.59;;;27.00;48.37
5550;BME280;2798;42.716;23.256;2023-09-18T10:41:38;95106.69;;;27.06;48.07
5550;BME280;2798;42.716;23.256;2023-09-18T10:44:03;95097.94;;;27.12;47.73
5550;BME280;2798;42.716;23.256;2023-09-18T10:46:29;95104.81;;;27.20;47.91
5550;BME280;2798;42.716;23.256;2023-09-18T10:48:54;95099.13;;;27.30;47.39
5550;BME280;2798;42.716;23.256;2023-09-18T10:51:21;95100.50;;;27.39;46.99
5550;BME280;2798;42.716;23.256;2023-09-18T10:53:49;95098.44;;;27.48;46.85
5550;BME280;2798;42.716;23.256;2023-09-18T10:56:15;95098.00;;;27.58;46.81
5550;BME280;2798;42.716;23.256;2023-09-18T10:58:41;95096.34;;;27.64;46.27
5550;BME280;2798;42.716;23.256;2023-09-18T11:01:06;95102.25;;;27.73;46.04
5550;BME280;2798;42.716;23.256;2023-09-18T11:03:37;95088.75;;;27.81;45.77
5550;BME280;2798;42.716;23.256;2023-09-18T11:06:03;95089.13;;;27.92;45.40
5550;BME280;2798;42.716;23.256;2023-09-18T11:10:58;95071.94;;;28.08;44.61
5550;BME280;2798;42.716;23.256;2023-09-18T11:13:36;95079.63;;;28.16;44.47
5550;BME280;2798;42.716;23.256;2023-09-18T11:16:32;95076.72;;;28.24;43.98
5550;BME280;2798;42.716;23.256;2023-09-18T11:21:32;95068.91;;;28.36;43.29
5550;BME280;2798;42.716;23.256;2023-09-18T11:26:23;95071.47;;;28.50;42.84
5550;BME280;2798;42.716;23.256;2023-09-18T11:28:48;95068.19;;;28.55;42.59
5550;BME280;2798;42.716;23.256;2023-09-18T11:31:15;95062.22;;;28.59;42.99
5550;BME280;2798;42.716;23.256;2023-09-18T11:33:41;95065.63;;;28.67;42.80
5550;BME280;2798;42.716;23.256;2023-09-18T11:36:11;95062.09;;;28.73;42.46
5550;BME280;2798;42.716;23.256;2023-09-18T11:38:54;95061.25;;;28.79;42.19
5550;BME280;2798;42.716;23.256;2023-09-18T11:41:30;95055.84;;;28.86;42.13
5550;BME280;2798;42.716;23.256;2023-09-18T11:46:35;95052.53;;;28.97;41.97
5550;BME280;2798;42.716;23.256;2023-09-18T11:49:04;95046.34;;;29.04;41.93
5550;BME280;2798;42.716;23.256;2023-09-18T11:51:30;95048.31;;;29.08;41.82
5550;BME280;2798;42.716;23.256;2023-09-18T11:53:56;95047.47;;;29.15;41.31
5550;BME280;2798;42.716;23.256;2023-09-18T11:56:22;95049.22;;;29.21;41.44
5550;BME280;2798;42.716;23.256;2023-09-18T11:58:48;95043.47;;;29.24;40.88
5550;BME280;2798;42.716;23.256;2023-09-18T12:01:14;95055.25;;;29.28;40.67
5550;BME280;2798;42.716;23.256;2023-09-18T12:03:40;95046.41;;;29.34;41.13
5550;BME280;2798;42.716;23.256;2023-09-18T12:06:06;95047.00;;;29.36;40.51
5550;BME280;2798;42.716;23.256;2023-09-18T12:08:32;95048.16;;;29.41;40.85
5550;BME280;2798;42.716;23.256;2023-09-18T12:10:58;95055.81;;;29.49;40.73
5550;BME280;2798;42.716;23.256;2023-09-18T12:13:26;95043.31;;;29.56;40.14
5550;BME280;2798;42.716;23.256;2023-09-18T12:16:02;95036.09;;;29.64;40.15
5550;BME280;2798;42.716;23.256;2023-09-18T12:18:29;95034.97;;;29.71;39.98
5550;BME280;2798;42.716;23.256;2023-09-18T12:20:55;95028.97;;;29.76;40.36
5550;BME280;2798;42.716;23.256;2023-09-18T12:23:21;95029.69;;;29.83;39.64
5550;BME280;2798;42.716;23.256;2023-09-18T12:25:47;95032.72;;;29.87;40.17
5550;BME280;2798;42.716;23.256;2023-09-18T12:28:13;95033.16;;;29.84;40.14
5550;BME280;2798;42.716;23.256;2023-09-18T12:30:40;95025.44;;;29.82;40.04
5550;BME280;2798;42.716;23.256;2023-09-18T12:33:05;95035.59;;;29.85;40.01
5550;BME280;2798;42.716;23.256;2023-09-18T12:35:31;95033.28;;;29.89;39.67
5550;BME280;2798;42.716;23.256;2023-09-18T12:37:57;95034.69;;;29.92;39.47
5550;BME280;2798;42.716;23.256;2023-09-18T12:40:23;95033.19;;;29.96;39.71
5550;BME280;2798;42.716;23.256;2023-09-18T12:42:49;95031.50;;;30.02;39.67
5550;BME280;2798;42.716;23.256;2023-09-18T12:45:15;95032.41;;;30.07;40.09
5550;BME280;2798;42.716;23.256;2023-09-18T12:47:40;95032.53;;;30.13;39.23
5550;BME280;2798;42.716;23.256;2023-09-18T12:50:06;95022.28;;;30.16;39.29
5550;BME280;2798;42.716;23.256;2023-09-18T12:52:36;95018.16;;;30.20;39.48
5550;BME280;2798;42.716;23.256;2023-09-18T12:55:02;95019.91;;;30.27;39.02
5550;BME280;2798;42.716;23.256;2023-09-18T12:57:29;95016.09;;;30.34;39.16
5550;BME280;2798;42.716;23.256;2023-09-18T12:59:55;95021.75;;;30.38;39.25
5550;BME280;2798;42.716;23.256;2023-09-18T13:02:20;95013.09;;;30.43;38.83
5550;BME280;2798;42.716;23.256;2023-09-18T13:04:52;95011.63;;;30.47;38.97
5550;BME280;2798;42.716;23.256;2023-09-18T13:07:18;95007.22;;;30.53;38.61
5550;BME280;2798;42.716;23.256;2023-09-18T13:09:57;95014.50;;;30.57;38.48
5550;BME280;2798;42.716;23.256;2023-09-18T13:12:24;95013.56;;;30.64;38.21
5550;BME280;2798;42.716;23.256;2023-09-18T13:15:02;95002.81;;;30.70;38.27
5550;BME280;2798;42.716;23.256;2023-09-18T13:17:40;95010.47;;;30.79;38.29
5550;BME280;2798;42.716;23.256;2023-09-18T13:20:10;95008.16;;;30.82;37.98
5550;BME280;2798;42.716;23.256;2023-09-18T13:22:37;95006.19;;;30.90;37.80
5550;BME280;2798;42.716;23.256;2023-09-18T13:25:02;95007.31;;;30.94;38.05